Time;durP1;ratioP1;P1;durP2;ratioP2;P2;SDS_P1;SDS_P2;PMS_P1;PMS_P2;Temp;Humidity;BMP_temperature;BMP_pressure;BME280_temperature;BME280_humidity;BME280_pressure;Samples;Min_cycle;Max_cycle;Signal;HPM_P1;HPM_P2
2023/09/11 00:02:12;;;;;;;15.27;13.60;;;;;;;22.01;100.00;101141.66;5053325;28;20040;-49
2023/09/11 00:04:37;;;;;;;16.98;13.43;;;;;;;21.79;100.00;101104.03;5041099;28;20038;-50
2023/09/11 00:07:03;;;;;;;22.80;14.15;;;;;;;22.41;100.00;101220.84;5036401;28;20535;-53
2023/09/11 00:09:28;;;;;;;17.08;14.07;;;;;;;22.23;100.00;101198.09;5034994;28;20038;-50
2023/09/11 00:11:54;;;;;;;15.57;13.98;;;;;;;22.32;100.00;101207.25;5014805;28;20394;-52
2023/09/11 00:14:19;;;;;;;14.82;13.27;;;;;;;22.24;100.00;101199.78;5019946;28;20040;-48
2023/09/11 00:16:44;;;;;;;18.20;14.05;;;;;;;22.28;100.00;101209.31;5054261;28;20044;-53
2023/09/11 00:19:12;;;;;;;15.52;13.45;;;;;;;22.24;100.00;101199.78;5054421;28;20032;-48
2023/09/11 00:21:37;;;;;;;15.70;13.93;;;;;;;22.23;100.00;101206.13;5041045;28;20546;-53
2023/09/11 00:24:03;;;;;;;15.40;13.40;;;;;;;21.85;100.00;101146.44;5015171;28;20029;-48
2023/09/11 00:26:29;;;;;;;14.50;13.00;;;;;;;21.77;100.00;101136.28;5034816;28;20041;-50
2023/09/11 00:28:54;;;;;;;18.60;14.35;;;;;;;22.18;100.00;101205.59;5029921;28;20471;-52
2023/09/11 00:31:20;;;;;;;16.92;14.18;;;;;;;22.15;100.00;101205.00;5014679;28;20395;-52
2023/09/11 00:33:45;;;;;;;14.95;13.10;;;;;;;21.73;100.00;101136.63;5026595;28;20041;-50
2023/09/11 00:36:10;;;;;;;15.70;13.77;;;;;;;22.05;100.00;101202.13;5017625;28;20042;-47
2023/09/11 00:38:35;;;;;;;25.70;14.32;;;;;;;21.69;100.00;101143.16;5033617;28;20029;-50
2023/09/11 00:41:01;;;;;;;15.18;13.77;;;;;;;21.61;100.00;101127.69;5043025;28;20042;-48
2023/09/11 00:43:26;;;;;;;14.30;12.88;;;;;;;21.96;100.00;101193.91;5049396;28;20056;-48
2023/09/11 00:45:52;;;;;;;17.25;14.82;;;;;;;21.61;100.00;101135.72;5013188;28;20175;-52
2023/09/11 00:48:18;;;;;;;16.88;13.70;;;;;;;21.53;100.00;101121.16;5032816;28;20056;-49
2023/09/11 00:50:44;;;;;;;15.73;13.95;;;;;;;21.93;100.00;101200.34;5028252;28;20037;-48
2023/09/11 00:53:10;;;;;;;15.10;13.52;;;;;;;21.57;100.00;101136.88;5068081;28;20037;-49
2023/09/11 00:55:36;;;;;;;18.13;13.77;;;;;;;21.92;100.00;101190.59;4987106;28;20042;-49
2023/09/11 00:58:01;;;;;;;15.95;14.32;;;;;;;21.89;100.00;101184.63;5028929;28;20049;-46
2023/09/11 01:00:26;;;;;;;15.90;14.27;;;;;;;21.44;100.00;101113.81;5027986;28;20147;-53
2023/09/11 01:02:52;;;;;;;16.83;13.85;;;;;;;21.70;100.00;101153.78;5026020;28;20470;-49
2023/09/11 01:05:17;;;;;;;15.27;13.75;;;;;;;21.78;100.00;101177.31;5022670;28;20037;-49
2023/09/11 01:07:43;;;;;;;15.38;13.80;;;;;;;21.75;100.00;101167.69;5048204;28;20448;-51
2023/09/11 01:10:09;;;;;;;18.25;14.65;;;;;;;21.69;100.00;101168.16;5008564;28;20526;-49
2023/09/11 01:12:36;;;;;;;17.40;14.60;;;;;;;21.61;100.00;101159.81;5029912;28;20044;-48
2023/09/11 01:15:04;;;;;;;16.45;14.07;;;;;;;21.28;100.00;101116.72;5015761;28;20049;-48
2023/09/11 01:17:46;;;;;;;16.70;14.75;;;;;;;21.16;100.00;101096.22;5040523;28;20468;-46
2023/09/11 01:20:33;;;;;;;16.02;14.05;;;;;;;21.51;100.00;101169.47;5024965;28;20041;-49
2023/09/11 01:23:32;;;;;;;16.85;15.07;;;;;;;21.47;100.00;101162.66;5013613;28;20596;-53
2023/09/11 01:26:24;;;;;;;17.35;14.95;;;;;;;21.44;100.00;101167.38;5024478;28;20367;-50
2023/09/11 01:29:05;;;;;;;16.65;14.98;;;;;;;21.38;100.00;101167.81;5032404;28;20144;-50
2023/09/11 01:31:34;;;;;;;16.65;15.07;;;;;;;21.30;100.00;101157.66;5021574;28;20214;-50
2023/09/11 01:34:00;;;;;;;18.13;16.30;;;;;;;20.91;100.00;101077.50;5014610;28;20120;-47
2023/09/11 01:36:26;;;;;;;18.20;16.30;;;;;;;20.92;100.00;101076.53;5031857;28;20052;-47
2023/09/11 01:38:51;;;;;;;15.95;14.30;;;;;;;21.30;100.00;101142.47;5032012;28;20046;-53
2023/09/11 01:41:17;;;;;;;18.58;15.48;;;;;;;20.98;100.00;101095.69;5011577;28;20105;-51
2023/09/11 01:43:44;;;;;;;18.83;16.77;;;;;;;20.82;100.00;101070.13;5032235;28;20037;-51
2023/09/11 01:46:11;;;;;;;17.33;15.63;;;;;;;21.20;100.00;101146.75;5030062;28;20029;-48
2023/09/11 01:48:37;;;;;;;20.15;17.35;;;;;;;20.80;100.00;101072.91;5045693;28;20079;-47
2023/09/11 01:51:03;;;;;;;19.90;16.92;;;;;;;21.12;100.00;101116.13;5042478;28;20471;-47
2023/09/11 01:53:28;;;;;;;25.35;18.73;;;;;;;20.57;100.00;101030.91;5033161;28;20112;-51
2023/09/11 01:55:55;;;;;;;18.63;16.50;;;;;;;21.08;100.00;101125.34;5037740;28;20041;-47
2023/09/11 01:58:21;;;;;;;19.20;17.35;;;;;;;20.74;100.00;101070.69;5038902;28;20033;-46
2023/09/11 02:00:46;;;;;;;22.67;18.73;;;;;;;20.93;100.00;101091.63;5031681;28;20037;-49
2023/09/11 02:03:12;;;;;;;20.80;18.35;;;;;;;21.09;100.00;101116.34;5023486;28;20026;-47
2023/09/11 02:05:37;;;;;;;19.45;17.52;;;;;;;20.57;100.00;101033.56;5020369;28;20038;-50
2023/09/11 02:08:03;;;;;;;20.95;18.15;;;;;;;20.77;100.00;101071.31;5032004;28;20505;-48
2023/09/11 02:10:28;;;;;;;20.27;18.20;;;;;;;21.01;100.00;101116.03;5031414;28;20045;-49
2023/09/11 02:12:53;;;;;;;20.85;18.25;;;;;;;20.63;100.00;101046.50;5027463;28;20113;-52
2023/09/11 02:15:19;;;;;;;20.52;18.52;;;;;;;21.00;100.00;101104.47;5017964;28;20519;-53
2023/09/11 02:17:44;;;;;;;21.45;17.98;;;;;;;21.00;100.00;101112.50;5061094;28;20029;-49
2023/09/11 02:20:10;;;;;;;21.27;19.15;;;;;;;20.87;100.00;101086.72;5025068;28;20037;-49
2023/09/11 02:22:35;;;;;;;25.75;19.20;;;;;;;20.51;100.00;101036.66;5022758;28;20061;-47
2023/09/11 02:25:00;;;;;;;21.52;19.38;;;;;;;20.91;100.00;101101.56;5038666;28;20534;-48
2023/09/11 02:27:26;;;;;;;22.40;19.23;;;;;;;20.81;100.00;101096.00;5046696;28;20060;-46
2023/09/11 02:29:51;;;;;;;22.08;20.05;;;;;;;20.86;100.00;101107.28;5030245;28;20948;-53
2023/09/11 02:32:16;;;;;;;22.15;19.80;;;;;;;20.47;100.00;101036.03;5015949;28;20475;-50
2023/09/11 02:34:42;;;;;;;23.83;19.73;;;;;;;20.85;100.00;101105.53;5030012;28;20045;-48
2023/09/11 02:37:08;;;;;;;20.77;18.67;;;;;;;20.83;100.00;101104.81;5020333;28;20030;-46
2023/09/11 02:39:33;;;;;;;22.48;20.17;;;;;;;20.73;100.00;101091.22;5027387;28;20053;-46
2023/09/11 02:41:59;;;;;;;23.88;21.33;;;;;;;20.77;100.00;101105.25;5028922;28;20106;-51
2023/09/11 02:44:24;;;;;;;23.50;20.75;;;;;;;20.34;100.00;101045.88;5029930;28;20536;-49
2023/09/11 02:46:50;;;;;;;22.60;20.27;;;;;;;20.67;100.00;101098.81;5029143;28;20029;-49
2023/09/11 02:49:17;;;;;;;22.45;20.27;;;;;;;20.62;100.00;101100.97;5032294;28;20048;-46
2023/09/11 02:51:42;;;;;;;23.20;20.85;;;;;;;20.28;100.00;101040.09;5021894;28;20034;-50
2023/09/11 02:54:08;;;;;;;23.27;20.98;;;;;;;20.56;100.00;101094.22;5038024;28;20233;-49
2023/09/11 02:56:37;;;;;;;22.63;20.23;;;;;;;20.55;100.00;101107.69;5029627;28;20490;-52
2023/09/11 02:59:03;;;;;;;23.90;21.42;;;;;;;20.55;100.00;101092.50;5021498;28;20033;-49
2023/09/11 03:01:28;;;;;;;23.08;20.95;;;;;;;20.50;100.00;101083.09;5017438;28;20042;-48
2023/09/11 03:03:53;;;;;;;27.67;21.70;;;;;;;20.08;100.00;101017.41;5029674;28;20076;-49
2023/09/11 03:06:19;;;;;;;23.90;21.40;;;;;;;20.06;100.00;101020.16;5030418;28;20033;-47
2023/09/11 03:08:44;;;;;;;24.75;22.23;;;;;;;20.21;100.00;101056.53;5030782;28;20065;-47
2023/09/11 03:11:10;;;;;;;28.75;22.55;;;;;;;20.38;100.00;101076.78;5027618;28;20506;-47
2023/09/11 03:13:36;;;;;;;25.15;22.48;;;;;;;19.95;100.00;101006.69;5046349;28;20033;-47
2023/09/11 03:16:12;;;;;;;24.55;22.05;;;;;;;20.10;100.00;101034.16;5045943;28;20072;-51
2023/09/11 03:18:38;;;;;;;24.23;21.80;;;;;;;20.18;100.00;101029.16;5029441;28;20041;-49
2023/09/11 03:21:04;;;;;;;23.75;21.58;;;;;;;20.32;100.00;101068.31;5013221;28;20124;-55
2023/09/11 03:23:30;;;;;;;25.38;22.13;;;;;;;20.31;100.00;101055.94;5030863;28;20487;-53
2023/09/11 03:25:56;;;;;;;26.60;23.40;;;;;;;20.18;100.00;101035.34;5049542;28;20092;-51
2023/09/11 03:28:21;;;;;;;24.55;21.90;;;;;;;20.30;100.00;101049.72;5031179;28;20041;-48
2023/09/11 03:30:46;;;;;;;24.17;21.80;;;;;;;20.33;100.00;101054.00;5029237;28;20129;-53
2023/09/11 03:33:12;;;;;;;25.63;22.95;;;;;;;20.39;100.00;101049.09;5034531;28;20030;-50
2023/09/11 03:35:38;;;;;;;23.38;21.15;;;;;;;20.42;100.00;101048.88;5035695;28;20045;-49
2023/09/11 03:38:03;;;;;;;24.88;22.35;;;;;;;20.45;100.00;101042.44;5036104;28;20053;-53
2023/09/11 03:40:30;;;;;;;23.27;21.15;;;;;;;20.45;100.00;101045.97;5037631;28;20038;-52
2023/09/11 03:42:55;;;;;;;25.65;22.65;;;;;;;20.33;100.00;101036.16;5018749;28;20037;-48
2023/09/11 03:45:48;;;;;;;25.67;22.98;;;;;;;20.43;100.00;101053.22;5017926;28;20071;-48
2023/09/11 03:48:14;;;;;;;23.65;21.42;;;;;;;20.39;100.00;101045.56;5015377;28;20474;-48
2023/09/11 03:50:39;;;;;;;25.13;22.52;;;;;;;20.36;100.00;101051.97;5036288;28;20033;-48
2023/09/11 03:53:04;;;;;;;24.90;22.40;;;;;;;19.92;100.00;100971.31;5030568;28;20041;-52
2023/09/11 03:55:30;;;;;;;23.55;21.23;;;;;;;20.16;100.00;101007.03;5035844;28;20137;-52
2023/09/11 03:57:56;;;;;;;24.45;21.45;;;;;;;20.36;100.00;101035.94;5023221;28;20049;-50
2023/09/11 04:00:30;;;;;;;24.42;21.83;;;;;;;20.39;100.00;101034.84;5034612;28;20030;-48
2023/09/11 04:02:55;;;;;;;22.80;20.63;;;;;;;19.96;100.00;100970.16;5004388;28;20440;-48
2023/09/11 04:05:21;;;;;;;23.48;21.25;;;;;;;20.35;100.00;101036.88;5027073;28;20120;-54
2023/09/11 04:07:46;;;;;;;23.45;21.10;;;;;;;19.98;100.00;100974.41;5053895;28;20043;-49
2023/09/11 04:10:12;;;;;;;23.30;21.02;;;;;;;20.27;100.00;101031.22;5070551;28;20033;-48
2023/09/11 04:12:37;;;;;;;22.05;19.73;;;;;;;19.88;100.00;100959.97;5046059;28;20120;-52
2023/09/11 04:15:03;;;;;;;21.27;19.27;;;;;;;19.87;100.00;100971.63;5065166;28;20497;-50
2023/09/11 04:17:28;;;;;;;22.92;20.63;;;;;;;19.86;100.00;100961.03;5047878;28;20041;-48
2023/09/11 04:19:54;;;;;;;21.80;19.85;;;;;;;20.18;100.00;101016.66;5015219;28;20041;-51
2023/09/11 04:22:19;;;;;;;23.33;21.08;;;;;;;20.23;100.00;101027.88;4998209;28;20388;-48
2023/09/11 04:24:45;;;;;;;21.38;18.98;;;;;;;20.16;100.00;101017.72;5017769;28;20038;-50
2023/09/11 04:27:10;;;;;;;21.27;19.27;;;;;;;20.23;100.00;101026.19;5033808;28;20038;-48
2023/09/11 04:29:35;;;;;;;22.35;20.30;;;;;;;19.85;100.00;100968.19;5028689;28;20553;-50
2023/09/11 04:32:02;;;;;;;21.52;19.35;;;;;;;20.24;100.00;101050.09;5026991;28;20048;-47
2023/09/11 04:34:27;;;;;;;20.25;18.25;;;;;;;20.26;100.00;101045.53;5034659;28;20053;-46
2023/09/11 04:36:52;;;;;;;21.13;19.10;;;;;;;19.99;100.00;100999.31;5026441;28;20038;-48
2023/09/11 04:39:18;;;;;;;20.80;18.75;;;;;;;20.21;100.00;101036.94;5030795;28;20049;-49
2023/09/11 04:41:43;;;;;;;21.70;19.45;;;;;;;19.78;100.00;100968.72;5032677;28;20030;-48
2023/09/11 04:44:08;;;;;;;24.08;20.80;;;;;;;19.94;100.00;100993.41;5033699;28;20489;-51
2023/09/11 04:46:34;;;;;;;25.60;19.92;;;;;;;20.18;100.00;101043.38;5032957;28;20514;-48
2023/09/11 04:48:59;;;;;;;22.73;20.08;;;;;;;20.18;100.00;101040.69;5036359;28;20102;-49
2023/09/11 04:51:25;;;;;;;21.75;19.13;;;;;;;19.98;100.00;101010.97;5035758;28;20045;-49
2023/09/11 04:53:50;;;;;;;19.83;17.85;;;;;;;20.12;100.00;101022.41;5028440;28;20050;-49
2023/09/11 04:56:16;;;;;;;21.48;19.27;;;;;;;19.80;100.00;100964.13;5013529;28;20486;-49
2023/09/11 04:58:41;;;;;;;19.25;16.55;;;;;;;19.65;100.00;100936.66;5033466;28;20048;-49
2023/09/11 05:01:08;;;;;;;18.70;16.77;;;;;;;20.25;100.00;101033.16;5032447;28;20065;-47
2023/09/11 05:03:34;;;;;;;20.60;16.10;;;;;;;20.30;100.00;101056.88;5012959;28;20044;-47
2023/09/11 05:05:59;;;;;;;22.20;16.52;;;;;;;19.93;100.00;100975.69;5021084;28;20120;-51
2023/09/11 05:08:24;;;;;;;18.30;16.52;;;;;;;20.27;100.00;101039.25;5022411;28;20029;-50
2023/09/11 05:10:50;;;;;;;19.77;17.15;;;;;;;20.31;100.00;101039.88;5034001;28;20500;-48
2023/09/11 05:13:15;;;;;;;18.50;16.70;;;;;;;20.00;100.00;100993.00;5013712;28;20045;-52
2023/09/11 05:15:40;;;;;;;17.70;15.88;;;;;;;20.15;100.00;101029.34;5035816;28;20037;-50
2023/09/11 05:18:06;;;;;;;19.85;16.33;;;;;;;20.20;100.00;101041.44;5042205;28;20033;-50
2023/09/11 05:20:31;;;;;;;18.52;15.82;;;;;;;19.63;100.00;100955.47;5038363;28;20030;-50
2023/09/11 05:22:57;;;;;;;18.15;16.23;;;;;;;19.79;100.00;100992.66;5023762;28;20120;-48
2023/09/11 05:25:23;;;;;;;18.40;16.58;;;;;;;20.08;100.00;101049.47;5032516;28;20037;-50
2023/09/11 05:27:48;;;;;;;18.27;16.48;;;;;;;19.74;100.00;100992.13;5045206;28;20514;-47
2023/09/11 05:30:14;;;;;;;17.60;15.65;;;;;;;20.16;100.00;101063.16;5025169;28;20049;-48
2023/09/11 05:32:39;;;;;;;16.73;15.23;;;;;;;19.84;100.00;100979.84;5053137;28;20036;-49
2023/09/11 05:35:06;;;;;;;21.38;16.02;;;;;;;19.93;100.00;100983.72;5053270;28;20039;-45
2023/09/11 05:37:31;;;;;;;19.90;15.70;;;;;;;20.37;100.00;101052.84;5039871;28;20029;-48
2023/09/11 05:39:56;;;;;;;17.75;15.98;;;;;;;20.37;100.00;101045.66;5033369;28;20037;-50
2023/09/11 05:42:22;;;;;;;17.98;15.07;;;;;;;20.33;100.00;101016.56;5033430;28;20034;-47
2023/09/11 05:44:48;;;;;;;18.73;15.93;;;;;;;20.56;100.00;101045.22;5025583;28;20146;-46
2023/09/11 05:47:13;;;;;;;20.25;15.77;;;;;;;20.76;100.00;101076.75;5012717;28;20058;-48
2023/09/11 05:49:39;;;;;;;19.70;16.55;;;;;;;20.52;100.00;101025.03;5020474;28;20111;-50
2023/09/11 05:52:05;;;;;;;18.50;16.00;;;;;;;21.05;100.00;101088.06;5033753;28;20474;-47
2023/09/11 05:54:30;;;;;;;18.17;16.20;;;;;;;21.20;100.00;101097.69;5028275;28;20041;-45
2023/09/11 05:56:56;;;;;;;22.08;17.10;;;;;;;21.34;100.00;101096.72;4995596;28;20116;-48
2023/09/11 05:59:21;;;;;;;19.52;16.55;;;;;;;21.08;100.00;101040.56;5013307;28;20072;-49
2023/09/11 06:01:47;;;;;;;19.10;17.20;;;;;;;21.15;100.00;101033.81;5013498;28;20041;-48
2023/09/11 06:04:12;;;;;;;18.83;16.83;;;;;;;21.18;100.00;101022.88;5029416;28;20034;-46
2023/09/11 06:06:38;;;;;;;25.00;17.92;;;;;;;21.72;100.00;101110.78;5024727;28;20414;-47
2023/09/11 06:09:07;;;;;;;19.85;16.95;;;;;;;21.42;100.00;101051.47;5033062;28;20033;-46
2023/09/11 06:11:36;;;;;;;21.90;18.65;;;;;;;21.80;100.00;101105.75;5031731;28;20491;-48
2023/09/11 06:14:01;;;;;;;24.50;20.17;;;;;;;21.89;100.00;101118.47;5032975;28;20033;-50
2023/09/11 06:16:27;;;;;;;23.83;17.63;;;;;;;21.97;100.00;101118.75;5035093;28;20041;-52
2023/09/11 06:18:52;;;;;;;24.73;20.52;;;;;;;22.05;100.00;101118.16;5043533;28;20038;-47
2023/09/11 06:21:18;;;;;;;26.33;20.40;;;;;;;22.05;100.00;101112.81;5020917;28;20091;-47
2023/09/11 06:23:43;;;;;;;26.08;20.83;;;;;;;22.11;100.00;101117.72;5032065;28;20053;-51
2023/09/11 06:26:09;;;;;;;25.17;21.42;;;;;;;22.11;100.00;101117.72;5033565;28;20501;-52
2023/09/11 06:28:34;;;;;;;24.73;21.58;;;;;;;22.00;100.00;101102.44;5014335;28;20423;-48
2023/09/11 06:31:00;;;;;;;24.05;21.63;;;;;;;21.66;100.00;101057.66;5031802;28;20045;-50
2023/09/11 06:33:27;;;;;;;24.90;22.40;;;;;;;21.93;100.00;101106.56;5029510;28;20069;-50
2023/09/11 06:35:53;;;;;;;26.05;23.30;;;;;;;21.53;100.00;101051.53;5045353;28;20542;-52
2023/09/11 06:38:19;;;;;;;26.48;23.73;;;;;;;21.46;100.00;101047.59;5031344;28;20034;-47
2023/09/11 06:40:44;;;;;;;25.50;22.80;;;;;;;21.82;100.00;101119.88;5043088;28;20332;-49
2023/09/11 06:43:09;;;;;;;27.23;23.35;;;;;;;21.78;100.00;101107.66;5032349;28;20038;-48
2023/09/11 06:45:35;;;;;;;27.52;24.67;;;;;;;21.53;100.00;101067.59;5047400;28;20033;-48
2023/09/11 06:48:01;;;;;;;28.90;23.83;;;;;;;21.40;100.00;101037.31;5044365;28;20626;-46
2023/09/11 06:50:27;;;;;;;28.83;25.45;;;;;;;21.68;100.00;101071.81;5032052;28;20042;-50
2023/09/11 06:52:52;;;;;;;32.05;26.65;;;;;;;21.98;100.00;101100.84;5020603;28;20403;-49
2023/09/11 06:55:17;;;;;;;29.48;25.60;;;;;;;22.19;100.00;101112.59;5015523;28;20057;-46
2023/09/11 06:57:55;;;;;;;28.58;24.48;;;;;;;22.03;100.00;101061.16;5021379;28;20426;-49
2023/09/11 07:00:20;;;;;;;27.75;24.92;;;;;;;21.98;100.00;101048.09;5023784;28;20036;-46
2023/09/11 07:02:47;;;;;;;29.27;24.85;;;;;;;22.55;100.00;101117.84;5033393;28;20029;-51
2023/09/11 07:05:13;;;;;;;32.35;24.38;;;;;;;22.02;100.00;101030.81;5025291;28;20049;-53
2023/09/11 07:07:38;;;;;;;28.67;23.83;;;;;;;22.71;100.00;101136.28;5041005;28;20037;-47
2023/09/11 07:10:04;;;;;;;27.50;24.52;;;;;;;22.77;100.00;101127.75;5028574;28;20036;-46
2023/09/11 07:12:29;;;;;;;29.10;24.40;;;;;;;22.68;100.00;101094.44;5028950;28;20103;-46
2023/09/11 07:14:55;;;;;;;27.50;24.63;;;;;;;22.92;100.00;101130.09;5042517;28;20029;-49
2023/09/11 07:17:20;;;;;;;28.05;23.58;;;;;;;23.01;100.00;101125.84;5035978;28;20033;-48
2023/09/11 07:19:47;;;;;;;31.98;25.13;;;;;;;22.88;100.00;101088.34;5047190;28;20033;-49
2023/09/11 07:22:12;;;;;;;27.27;23.08;;;;;;;23.16;100.00;101129.97;5018409;28;20504;-47
2023/09/11 07:24:38;;;;;;;24.10;20.75;;;;;;;23.26;100.00;101130.09;5040860;28;20037;-47
2023/09/11 07:27:04;;;;;;;23.13;20.75;;;;;;;23.46;100.00;101135.59;5044045;28;20450;-49
2023/09/11 07:29:30;;;;;;;24.58;21.60;;;;;;;23.18;100.00;101086.88;5034697;28;20034;-51
2023/09/11 07:31:55;;;;;;;22.83;20.25;;;;;;;23.32;100.00;101084.78;5047683;28;20029;-48
2023/09/11 07:34:20;;;;;;;32.85;20.70;;;;;;;23.83;100.00;101162.13;5037444;28;20063;-52
2023/09/11 07:36:46;;;;;;;22.35;19.95;;;;;;;23.82;100.00;101120.09;5022560;28;20041;-48
2023/09/11 07:39:11;;;;;;;19.35;17.40;;;;;;;23.59;100.00;101076.31;5044456;28;20162;-45
2023/09/11 07:41:36;;;;;;;25.45;17.35;;;;;;;24.19;100.00;101160.94;5033616;28;20061;-47
2023/09/11 07:44:02;;;;;;;18.15;15.80;;;;;;;23.90;100.00;101101.53;5031192;28;20067;-48
2023/09/11 07:46:30;;;;;;;17.08;15.48;;;;;;;24.10;100.00;101100.72;5031546;28;20049;-50
2023/09/11 07:48:55;;;;;;;16.38;14.82;;;;;;;24.40;100.00;101116.09;5031011;28;20037;-49
2023/09/11 07:51:20;;;;;;;20.17;14.95;;;;;;;24.45;100.00;101103.09;5027739;28;20084;-47
2023/09/11 07:53:46;;;;;;;19.65;15.38;;;;;;;25.07;100.00;101171.19;5040109;28;20041;-48
2023/09/11 07:56:12;;;;;;;16.38;14.63;;;;;;;25.13;100.00;101154.50;5049601;28;20043;-47
2023/09/11 07:58:38;;;;;;;14.45;12.38;;;;;;;25.48;100.00;101161.34;5046115;28;20049;-50
2023/09/11 08:01:04;;;;;;;15.55;11.77;;;;;;;25.52;100.00;101138.50;5024904;28;20030;-48
2023/09/11 08:03:32;;;;;;;11.38;9.75;;;;;;;26.22;100.00;101187.75;5040611;28;20049;-52
2023/09/11 08:05:59;;;;;;;12.75;8.93;;;;;;;26.45;100.00;101204.50;5029403;28;20036;-52
2023/09/11 08:08:25;;;;;;;9.48;8.35;;;;;;;26.48;100.00;101141.25;5012521;28;20065;-50
2023/09/11 08:10:51;;;;;;;13.25;8.38;;;;;;;27.06;100.00;101196.03;5031114;28;20053;-51
2023/09/11 08:13:16;;;;;;;8.68;7.22;;;;;;;27.47;100.00;101219.94;5033620;28;20435;-50
2023/09/11 08:15:41;;;;;;;9.30;6.95;;;;;;;27.77;100.00;101235.03;5034063;28;20149;-46
2023/09/11 08:18:06;;;;;;;9.95;6.05;;;;;;;27.89;100.00;101187.84;5034625;28;20034;-48
2023/09/11 08:20:32;;;;;;;9.65;6.55;;;;;;;28.08;100.00;101186.91;5034517;28;20033;-45
2023/09/11 08:22:58;;;;;;;8.13;6.80;;;;;;;28.58;100.00;101219.66;5016170;28;20046;-46
2023/09/11 08:25:23;;;;;;;8.82;7.00;;;;;;;29.02;100.00;101253.91;5034593;28;20037;-51
2023/09/11 08:27:49;;;;;;;10.70;7.10;;;;;;;28.97;100.00;101188.50;5034772;28;20448;-50
2023/09/11 08:30:14;;;;;;;19.52;7.03;;;;;;;29.34;100.00;101191.78;5034400;28;20478;-49
2023/09/11 08:32:40;;;;;;;14.02;6.50;;;;;;;29.38;100.00;101198.59;5034408;28;20542;-49
2023/09/11 08:35:05;;;;;;;9.82;5.88;;;;;;;29.69;100.00;101241.44;5034724;28;20056;-47
2023/09/11 08:37:31;;;;;;;10.05;6.25;;;;;;;29.55;100.00;101203.06;5034310;28;20029;-52
2023/09/11 08:39:56;;;;;;;6.97;4.95;;;;;;;29.99;100.00;101263.47;5034232;28;20213;-50
2023/09/11 08:42:24;;;;;;;7.55;5.80;;;;;;;29.54;100.00;101195.09;5034360;28;20132;-49
2023/09/11 08:44:50;;;;;;;8.57;5.18;;;;;;;29.76;100.00;101204.50;5066227;28;20116;-47
2023/09/11 08:47:16;;;;;;;7.03;5.75;;;;;;;29.85;100.00;101204.41;5034047;28;20140;-47
2023/09/11 08:49:44;;;;;;;8.15;5.93;;;;;;;30.29;100.00;101255.75;5016221;28;20037;-47
2023/09/11 08:52:13;;;;;;;7.22;5.85;;;;;;;30.50;100.00;101262.41;5016449;28;20087;-48
2023/09/11 08:54:42;;;;;;;9.73;6.13;;;;;;;30.06;100.00;101207.50;5033810;28;20116;-52
2023/09/11 08:57:10;;;;;;;8.90;6.30;;;;;;;30.27;100.00;101209.75;5032321;28;20060;-50
2023/09/11 08:59:38;;;;;;;8.95;6.45;;;;;;;30.23;100.00;101199.41;5016149;28;20078;-50
2023/09/11 09:02:04;;;;;;;11.23;6.95;;;;;;;30.55;100.00;101216.59;4999527;28;20033;-53
2023/09/11 09:04:29;;;;;;;9.18;6.50;;;;;;;30.55;100.00;101207.59;5033730;28;20537;-50
2023/09/11 09:06:55;;;;;;;11.25;6.25;;;;;;;30.87;100.00;101263.81;5049719;28;20128;-50
2023/09/11 09:09:21;;;;;;;14.88;6.97;;;;;;;30.88;100.00;101257.34;5016030;28;20479;-50
2023/09/11 09:11:48;;;;;;;7.82;7.00;;;;;;;31.18;100.00;101262.94;5015752;28;20048;-47
2023/09/11 09:14:17;;;;;;;8.02;6.40;;;;;;;30.91;100.00;101203.47;5033572;28;20033;-52
2023/09/11 09:16:46;;;;;;;9.95;6.57;;;;;;;31.08;100.00;101254.16;5015716;28;20420;-50
2023/09/11 09:19:12;;;;;;;8.65;6.30;;;;;;;31.65;100.00;101270.34;5015892;28;20030;-51
2023/09/11 09:22:06;;;;;;;10.50;7.10;;;;;;;31.88;100.00;101271.25;5033069;28;20482;-47
2023/09/11 09:24:33;;;;;;;8.50;6.50;;;;;;;32.33;100.00;101286.03;5033155;28;20065;-53
2023/09/11 09:27:00;;;;;;;7.40;6.32;;;;;;;32.06;100.00;101231.03;5015467;28;20057;-52
2023/09/11 09:29:25;;;;;;;12.30;6.38;;;;;;;31.85;100.00;101227.19;5033043;28;20045;-50
2023/09/11 09:31:51;;;;;;;9.30;6.55;;;;;;;32.06;100.00;101233.75;5031914;28;20119;-49
2023/09/11 09:34:17;;;;;;;12.75;6.85;;;;;;;32.45;100.00;101290.03;5048362;28;20041;-52
2023/09/11 09:36:53;;;;;;;7.72;5.95;;;;;;;32.23;100.00;101201.81;5031772;28;20158;-47
2023/09/11 09:39:19;;;;;;;10.35;6.60;;;;;;;32.62;100.00;101276.16;5015524;28;20040;-53
2023/09/11 09:41:53;;;;;;;9.63;6.07;;;;;;;32.77;100.00;101292.56;5031731;28;20025;-45
2023/09/11 09:44:39;;;;;;;10.35;7.28;;;;;;;32.30;100.00;101241.78;5015082;28;20029;-47
2023/09/11 09:47:10;;;;;;;9.55;7.13;;;;;;;32.70;100.00;101284.25;5015232;28;20152;-48
2023/09/11 09:49:49;;;;;;;8.85;6.70;;;;;;;32.58;100.00;101282.97;5047951;28;20052;-50
2023/09/11 09:52:14;;;;;;;8.68;6.22;;;;;;;32.11;100.00;101231.34;5032660;28;20030;-47
2023/09/11 09:54:45;;;;;;;9.65;6.50;;;;;;;33.00;100.00;101287.94;5015092;28;20017;-46
2023/09/11 09:57:16;;;;;;;10.50;7.20;;;;;;;32.31;100.00;101232.56;5015080;28;20155;-48
2023/09/11 09:59:42;;;;;;;;;;;;;;;32.64;100.00;101281.41;5033019;28;20028;-48
2023/09/11 10:02:10;;;;;;;11.52;6.47;;;;;;;32.68;100.00;101228.22;5014736;28;20305;-46
2023/09/11 10:04:36;;;;;;;9.90;6.60;;;;;;;33.14;100.00;101250.81;5032538;28;20502;-46
2023/09/11 10:07:01;;;;;;;13.52;8.05;;;;;;;33.03;100.00;101297.63;5014723;28;20053;-51
2023/09/11 10:09:27;;;;;;;10.20;7.85;;;;;;;33.06;100.00;101294.53;5014762;28;20037;-46
2023/09/11 10:11:52;;;;;;;8.88;6.90;;;;;;;33.22;100.00;101287.06;5014816;28;20047;-48
2023/09/11 10:14:18;;;;;;;10.30;7.25;;;;;;;33.15;100.00;101237.03;5047870;28;20141;-49
2023/09/11 10:16:45;;;;;;;11.70;8.38;;;;;;;33.32;100.00;101278.59;5032190;28;20036;-46
2023/09/11 10:19:12;;;;;;;8.52;7.45;;;;;;;32.70;100.00;101280.69;5031861;28;20056;-47
2023/09/11 10:21:37;;;;;;;12.85;7.90;;;;;;;33.08;100.00;101293.34;5032278;28;20040;-48
2023/09/11 10:24:03;;;;;;;13.00;8.43;;;;;;;32.92;100.00;101279.81;5032208;28;20075;-51
2023/09/11 10:26:47;;;;;;;9.88;8.05;;;;;;;33.17;100.00;101294.09;5014311;28;20101;-48
2023/09/11 10:29:34;;;;;;;13.13;8.60;;;;;;;33.52;100.00;101281.63;5032101;28;20039;-51
2023/09/11 10:32:28;;;;;;;11.50;8.63;;;;;;;33.43;100.00;101286.31;5014434;28;20095;-45
2023/09/11 10:34:55;;;;;;;15.10;9.65;;;;;;;33.00;100.00;101248.91;5031501;28;20241;-47
2023/09/11 10:37:21;;;;;;;15.07;9.60;;;;;;;33.09;100.00;101299.66;5047203;28;20037;-48
2023/09/11 10:39:48;;;;;;;14.15;10.57;;;;;;;32.84;100.00;101288.91;5031571;28;20367;-49
2023/09/11 10:42:13;;;;;;;15.18;9.38;;;;;;;33.41;100.00;101274.75;5014061;28;20466;-48
2023/09/11 10:44:39;;;;;;;10.23;7.93;;;;;;;33.94;100.00;101296.34;5016409;28;20045;-47
2023/09/11 10:47:04;;;;;;;10.60;8.38;;;;;;;34.07;100.00;101292.06;5031576;28;20030;-46
2023/09/11 10:49:33;;;;;;;15.48;10.13;;;;;;;34.15;100.00;101254.56;5030433;28;20068;-48
2023/09/11 10:51:59;;;;;;;14.68;11.07;;;;;;;34.08;100.00;101297.34;5046990;28;20033;-46
2023/09/11 10:54:24;;;;;;;15.82;10.43;;;;;;;34.23;100.00;101305.53;5031360;28;20034;-48
2023/09/11 10:56:50;;;;;;;11.65;8.70;;;;;;;34.11;100.00;101288.81;5013524;28;20440;-47
2023/09/11 10:59:16;;;;;;;15.20;10.05;;;;;;;33.80;100.00;101237.09;5031714;28;20048;-52
2023/09/11 11:01:46;;;;;;;16.75;11.90;;;;;;;33.53;100.00;101242.38;5013659;28;20108;-49
2023/09/11 11:04:13;;;;;;;13.40;11.80;;;;;;;33.75;100.00;101250.50;5047134;28;20491;-50